Time;durP1;ratioP1;P1;durP2;ratioP2;P2;SDS_P1;SDS_P2;PMS_P1;PMS_P2;Temp;Humidity;BMP_temperature;BMP_pressure;BME280_temperature;BME280_humidity;BME280_pressure;Samples;Min_cycle;Max_cycle;Signal;HPM_P1;HPM_P2
2024/04/15 00:01:34;;;;;;;;;;;;;;;22.86;41.73;100907.30;103752;1286;62460;-78
2024/04/15 00:03:59;;;;;;;;;;;;;;;22.86;41.82;100905.16;103671;1286;62095;-78
2024/04/15 00:06:25;;;;;;;;;;;;;;;22.86;41.78;100904.79;103659;1286;62187;-78
2024/04/15 00:08:50;;;;;;;;;;;;;;;22.85;41.76;100904.62;103747;1285;62190;-78
2024/04/15 00:11:17;;;;;;;;;;;;;;;22.85;41.80;100906.09;103669;1291;62213;-78
2024/04/15 00:13:43;;;;;;;;;;;;;;;22.85;41.88;100910.94;103780;1286;62187;-78
2024/04/15 00:16:10;;;;;;;;;;;;;;;22.85;41.83;100906.11;103738;1285;62293;-78
2024/04/15 00:18:36;;;;;;;;;;;;;;;22.85;41.75;100904.33;103746;1286;62175;-78
2024/04/15 00:21:04;;;;;;;;;;;;;;;22.85;41.90;100903.79;103658;1286;62136;-78
2024/04/15 00:23:31;;;;;;;;;;;;;;;22.84;41.81;100902.20;103742;1286;62228;-78
2024/04/15 00:25:56;;;;;;;;;;;;;;;22.85;41.87;100905.73;103688;1285;63548;-78
2024/04/15 00:28:22;;;;;;;;;;;;;;;22.84;41.89;100904.73;103688;1288;62171;-77
2024/04/15 00:30:48;;;;;;;;;;;;;;;22.84;41.78;100901.14;103673;1290;62267;-77
2024/04/15 00:33:14;;;;;;;;;;;;;;;22.84;41.89;100907.41;103719;1286;62219;-77
2024/04/15 00:35:46;;;;;;;;;;;;;;;22.85;41.88;100909.73;103727;1289;63245;-78
2024/04/15 00:38:11;;;;;;;;;;;;;;;22.84;41.88;100908.85;103662;1286;62196;-77
2024/04/15 00:40:37;;;;;;;;;;;;;;;22.84;41.93;100906.70;103699;1288;62200;-78
2024/04/15 00:43:03;;;;;;;;;;;;;;;22.84;41.90;100902.77;103681;1287;62222;-78
2024/04/15 00:45:30;;;;;;;;;;;;;;;22.84;41.85;100903.31;103757;1286;62146;-78
2024/04/15 00:47:58;;;;;;;;;;;;;;;22.84;41.87;100905.30;103696;1291;62537;-78
2024/04/15 00:50:24;;;;;;;;;;;;;;;22.84;42.01;100906.91;103677;1285;72354;-78
2024/04/15 00:52:51;;;;;;;;;;;;;;;22.84;41.99;100906.02;103799;1286;63150;-78
2024/04/15 00:55:17;;;;;;;;;;;;;;;22.83;41.88;100908.21;103678;1286;62142;-78
2024/04/15 00:57:43;;;;;;;;;;;;;;;22.84;41.92;100911.77;103689;1289;62188;-78
2024/04/15 01:00:12;;;;;;;;;;;;;;;22.84;42.00;100914.64;103807;1285;62250;-78
2024/04/15 01:02:38;;;;;;;;;;;;;;;22.83;41.96;100917.36;103786;1285;75207;-78
2024/04/15 01:05:03;;;;;;;;;;;;;;;22.84;42.02;100914.45;103741;1284;62184;-78
2024/04/15 01:07:29;;;;;;;;;;;;;;;22.83;42.01;100910.21;103746;1286;62206;-78
2024/04/15 01:09:55;;;;;;;;;;;;;;;22.83;41.99;100907.86;103776;1288;62183;-78
2024/04/15 01:12:21;;;;;;;;;;;;;;;22.83;41.91;100906.59;103736;1286;62821;-78
2024/04/15 01:14:46;;;;;;;;;;;;;;;22.83;41.99;100900.86;103798;1288;62101;-79
2024/04/15 01:17:12;;;;;;;;;;;;;;;22.83;41.94;100902.65;103823;1285;62196;-79
2024/04/15 01:19:37;;;;;;;;;;;;;;;22.83;42.05;100899.48;103758;1286;62347;-79
2024/04/15 01:22:03;;;;;;;;;;;;;;;22.83;41.98;100897.30;103661;1286;62117;-79
2024/04/15 01:24:29;;;;;;;;;;;;;;;22.83;41.94;100898.20;103670;1290;62167;-78
2024/04/15 01:26:54;;;;;;;;;;;;;;;22.83;42.06;100896.78;103813;1288;62197;-78
2024/04/15 01:29:20;;;;;;;;;;;;;;;22.82;41.97;100891.42;103771;1286;61932;-78
2024/04/15 01:31:45;;;;;;;;;;;;;;;22.82;42.03;100891.06;103816;1287;62180;-78
2024/04/15 01:34:11;;;;;;;;;;;;;;;22.82;42.01;100888.73;103837;1285;62222;-78
2024/04/15 01:36:36;;;;;;;;;;;;;;;22.82;42.10;100886.21;103741;1285;62213;-79
2024/04/15 01:39:02;;;;;;;;;;;;;;;22.82;41.99;100889.64;103777;1286;62158;-78
2024/04/15 01:41:27;;;;;;;;;;;;;;;22.82;42.02;100892.36;103714;1284;62114;-78
2024/04/15 01:43:53;;;;;;;;;;;;;;;22.82;42.00;100892.34;103850;1291;62210;-78
2024/04/15 01:46:19;;;;;;;;;;;;;;;22.82;41.96;100895.23;103677;1285;62264;-77
2024/04/15 01:48:44;;;;;;;;;;;;;;;22.82;42.02;100897.38;103334;1286;62194;-77
2024/04/15 01:51:10;;;;;;;;;;;;;;;22.82;41.91;100896.48;103949;1286;62759;-78
2024/04/15 01:53:35;;;;;;;;;;;;;;;22.82;42.02;100892.73;103444;1286;62114;-78
2024/04/15 01:56:01;;;;;;;;;;;;;;;22.82;42.00;100889.68;103672;1286;62300;-78
2024/04/15 01:58:26;;;;;;;;;;;;;;;22.82;41.90;100890.56;103681;1286;62471;-79
2024/04/15 02:01:01;;;;;;;;;;;;;;;22.81;41.99;100889.52;103795;1288;62098;-79
2024/04/15 02:03:26;;;;;;;;;;;;;;;22.81;41.94;100890.23;103670;1286;62181;-79
2024/04/15 02:05:52;;;;;;;;;;;;;;;22.81;41.90;100889.53;103787;1286;62193;-77
2024/04/15 02:08:18;;;;;;;;;;;;;;;22.81;41.98;100884.31;103690;1286;62109;-77
2024/04/15 02:10:43;;;;;;;;;;;;;;;22.81;42.01;100887.00;103693;1286;62217;-79
2024/04/15 02:13:09;;;;;;;;;;;;;;;22.81;42.01;100886.36;103761;1286;62267;-79
2024/04/15 02:15:35;;;;;;;;;;;;;;;22.81;41.96;100886.50;103699;1285;62126;-79
2024/04/15 02:18:01;;;;;;;;;;;;;;;22.81;41.84;100880.41;103675;1286;62218;-79
2024/04/15 02:20:26;;;;;;;;;;;;;;;22.80;41.95;100870.23;103642;1286;62225;-78
2024/04/15 02:22:52;;;;;;;;;;;;;;;22.81;41.95;100867.71;103708;1288;62101;-78
2024/04/15 02:25:17;;;;;;;;;;;;;;;22.81;41.94;100866.98;103158;1285;723062;-79
2024/04/15 02:27:43;;;;;;;;;;;;;;;22.80;41.94;100874.54;103764;1286;62162;-77
2024/04/15 02:30:09;;;;;;;;;;;;;;;22.80;41.86;100874.38;103798;1285;62239;-77
2024/04/15 02:32:34;;;;;;;;;;;;;;;22.80;41.93;100874.56;103740;1286;62107;-77
2024/04/15 02:35:00;;;;;;;;;;;;;;;22.80;41.95;100873.48;103788;1286;62193;-79
2024/04/15 02:37:25;;;;;;;;;;;;;;;22.80;41.93;100866.13;104073;1285;62183;-77
2024/04/15 02:39:51;;;;;;;;;;;;;;;22.80;41.88;100867.21;103694;1286;62130;-78
2024/04/15 02:42:16;;;;;;;;;;;;;;;22.80;41.94;100861.66;103795;1286;62191;-77
2024/04/15 02:44:42;;;;;;;;;;;;;;;22.80;41.97;100865.61;103694;1286;62117;-78
2024/04/15 02:47:08;;;;;;;;;;;;;;;22.80;42.01;100867.95;103682;1287;63284;-77
2024/04/15 02:49:33;;;;;;;;;;;;;;;22.80;41.94;100866.67;103764;1289;62117;-79
2024/04/15 02:51:59;;;;;;;;;;;;;;;22.79;41.98;100863.84;103961;1286;62083;-78
2024/04/15 02:54:24;;;;;;;;;;;;;;;22.79;42.03;100865.14;103790;1286;62996;-79
2024/04/15 02:56:50;;;;;;;;;;;;;;;22.79;41.88;100863.88;103709;1286;62132;-79
2024/04/15 02:59:15;;;;;;;;;;;;;;;22.79;42.04;100864.94;103648;1288;62848;-77
2024/04/15 03:01:41;;;;;;;;;;;;;;;22.79;42.10;100863.16;103699;1286;62241;-78
2024/04/15 03:04:06;;;;;;;;;;;;;;;22.79;42.02;100859.22;103727;1286;62104;-79
2024/04/15 03:06:32;;;;;;;;;;;;;;;22.79;41.97;100856.36;103604;1286;62245;-77
2024/04/15 03:08:58;;;;;;;;;;;;;;;22.79;42.04;100855.13;103766;1286;62180;-79
2024/04/15 03:11:23;;;;;;;;;;;;;;;22.79;42.01;100851.54;103740;1285;62200;-79
2024/04/15 03:13:49;;;;;;;;;;;;;;;22.78;42.04;100850.65;103696;1289;62353;-79
2024/04/15 03:16:15;;;;;;;;;;;;;;;22.78;41.99;100850.30;103741;1286;62165;-79
2024/04/15 03:18:40;;;;;;;;;;;;;;;22.78;42.04;100848.52;103728;1286;62164;-79
2024/04/15 03:21:10;;;;;;;;;;;;;;;22.78;42.03;100853.57;103790;1286;62194;-79
2024/04/15 03:23:36;;;;;;;;;;;;;;;22.78;42.01;100856.05;103976;1286;75454;-77
2024/04/15 03:26:01;;;;;;;;;;;;;;;22.78;42.17;100856.95;103784;1286;63234;-77
2024/04/15 03:28:27;;;;;;;;;;;;;;;22.78;41.95;100856.61;103700;1286;62184;-77
2024/04/15 03:30:53;;;;;;;;;;;;;;;22.77;42.19;100853.98;104089;1285;62235;-77
2024/04/15 03:33:19;;;;;;;;;;;;;;;22.77;42.10;100853.41;103681;1286;62252;-78
2024/04/15 03:35:44;;;;;;;;;;;;;;;22.77;41.99;100854.17;103684;1285;62124;-78
2024/04/15 03:38:10;;;;;;;;;;;;;;;22.77;41.95;100854.70;103707;1286;62076;-78
2024/04/15 03:40:35;;;;;;;;;;;;;;;22.77;41.95;100854.17;103728;1286;62218;-78
2024/04/15 03:43:02;;;;;;;;;;;;;;;22.76;41.88;100859.74;103623;1286;62121;-78
2024/04/15 03:45:28;;;;;;;;;;;;;;;22.76;41.81;100856.03;103661;1285;62277;-78
2024/04/15 03:47:53;;;;;;;;;;;;;;;22.75;41.75;100856.10;103801;1285;62246;-78
2024/04/15 03:50:20;;;;;;;;;;;;;;;22.74;41.68;100852.55;103740;1286;62181;-78
2024/04/15 03:52:46;;;;;;;;;;;;;;;22.73;41.59;100853.38;103826;1285;62094;-77
2024/04/15 03:55:11;;;;;;;;;;;;;;;22.72;41.52;100850.25;103907;1286;62187;-78
2024/04/15 03:57:37;;;;;;;;;;;;;;;22.71;41.56;100849.95;103704;1285;75193;-78
2024/04/15 04:00:03;;;;;;;;;;;;;;;22.70;41.53;100849.50;103783;1286;63235;-79
2024/04/15 04:02:28;;;;;;;;;;;;;;;22.68;41.36;100851.41;103897;1288;63271;-78
2024/04/15 04:04:54;;;;;;;;;;;;;;;22.67;41.22;100848.98;103921;1286;62164;-79
2024/04/15 04:07:21;;;;;;;;;;;;;;;22.65;41.15;100847.52;103977;1284;62123;-79
2024/04/15 04:09:49;;;;;;;;;;;;;;;22.63;41.09;100848.40;103825;1285;75249;-79
2024/04/15 04:12:15;;;;;;;;;;;;;;;22.61;40.96;100844.81;103735;1286;62132;-78
2024/04/15 04:14:40;;;;;;;;;;;;;;;22.59;40.83;100844.73;103715;1286;62216;-77
2024/04/15 04:17:06;;;;;;;;;;;;;;;22.58;40.86;100847.14;103674;1288;62142;-77
2024/04/15 04:19:31;;;;;;;;;;;;;;;22.58;40.80;100849.84;103878;1286;63853;-77
2024/04/15 04:21:58;;;;;;;;;;;;;;;22.57;40.70;100851.90;104113;1283;75259;-78
2024/04/15 04:24:24;;;;;;;;;;;;;;;22.56;40.67;100851.45;103901;1286;62222;-78
2024/04/15 04:26:49;;;;;;;;;;;;;;;22.54;40.66;100847.85;103909;1286;62192;-77
2024/04/15 04:29:15;;;;;;;;;;;;;;;22.52;40.77;100848.17;103985;1287;62265;-77
2024/04/15 04:31:41;;;;;;;;;;;;;;;22.49;40.53;100851.61;103865;1289;62162;-77
2024/04/15 04:34:07;;;;;;;;;;;;;;;22.47;40.57;100853.08;104270;1285;62202;-76
2024/04/15 04:36:33;;;;;;;;;;;;;;;22.45;40.48;100855.17;104151;1286;63239;-78
2024/04/15 04:38:58;;;;;;;;;;;;;;;22.44;40.42;100860.26;104195;1287;62236;-78
2024/04/15 04:41:24;;;;;;;;;;;;;;;22.42;40.33;100867.19;104071;1286;62155;-79
2024/04/15 04:43:50;;;;;;;;;;;;;;;22.41;40.31;100869.43;104138;1288;62133;-78
2024/04/15 04:46:16;;;;;;;;;;;;;;;22.40;40.34;100866.86;103934;1286;63643;-79
2024/04/15 04:48:41;;;;;;;;;;;;;;;22.39;40.29;100860.84;104105;1285;63338;-78
2024/04/15 04:51:07;;;;;;;;;;;;;;;22.39;40.28;100861.20;104337;1285;62187;-79
2024/04/15 04:53:33;;;;;;;;;;;;;;;22.38;40.27;100864.14;104237;1286;74105;-79
2024/04/15 04:56:25;;;;;;;;;;;;;;;22.37;40.35;100865.10;104390;1286;62302;-79
2024/04/15 04:58:50;;;;;;;;;;;;;;;22.36;40.31;100870.38;104202;1291;61987;-78
2024/04/15 05:01:16;;;;;;;;;;;;;;;22.35;40.09;100868.13;104056;1289;62190;-79
2024/04/15 05:03:46;;;;;;;;;;;;;;;22.35;40.22;100862.18;104646;1290;63437;-78
2024/04/15 05:06:12;;;;;;;;;;;;;;;22.36;40.14;100861.56;104208;1290;74334;-78
2024/04/15 05:08:38;;;;;;;;;;;;;;;22.36;40.20;100857.48;104285;1292;62111;-80
2024/04/15 05:11:04;;;;;;;;;;;;;;;22.35;40.26;100858.05;104641;1292;60713;-80
2024/04/15 05:13:29;;;;;;;;;;;;;;;22.35;40.18;100861.10;104220;1290;62088;-77
2024/04/15 05:16:04;;;;;;;;;;;;;;;22.36;40.18;100862.48;104344;1290;62172;-79
2024/04/15 05:18:30;;;;;;;;;;;;;;;22.35;40.05;100862.55;104275;1291;62106;-78
2024/04/15 05:20:56;;;;;;;;;;;;;;;22.33;39.98;100858.76;104038;1294;62195;-78
2024/04/15 05:23:21;;;;;;;;;;;;;;;22.31;39.91;100859.04;104176;1289;60460;-78
2024/04/15 05:25:47;;;;;;;;;;;;;;;22.31;39.95;100860.34;103940;1289;59887;-78
2024/04/15 05:28:12;;;;;;;;;;;;;;;22.32;39.87;100858.86;104360;1289;62158;-78
2024/04/15 05:30:38;;;;;;;;;;;;;;;22.32;39.92;100860.09;104094;1294;62186;-79
2024/04/15 05:33:04;;;;;;;;;;;;;;;22.32;39.87;100865.45;103911;1291;62258;-79
2024/04/15 05:35:30;;;;;;;;;;;;;;;22.32;39.82;100862.02;104476;1290;62187;-79
2024/04/15 05:37:56;;;;;;;;;;;;;;;22.34;39.74;100864.41;104494;1291;62213;-79
2024/04/15 05:40:22;;;;;;;;;;;;;;;22.34;39.74;100863.30;104489;1289;62098;-79
2024/04/15 05:42:47;;;;;;;;;;;;;;;22.35;39.64;100864.87;104492;1290;62111;-78
2024/04/15 05:45:13;;;;;;;;;;;;;;;22.36;39.57;100871.25;104415;1289;61969;-78
2024/04/15 05:47:38;;;;;;;;;;;;;;;22.37;39.53;100874.59;104708;1294;62223;-78
2024/04/15 05:50:04;;;;;;;;;;;;;;;22.37;39.44;100878.88;104371;1292;62245;-78
2024/04/15 05:52:30;;;;;;;;;;;;;;;22.39;39.57;100879.29;103618;1294;62224;-78
2024/04/15 05:54:55;;;;;;;;;;;;;;;22.38;39.61;100876.66;104050;1292;62229;-79
2024/04/15 05:57:21;;;;;;;;;;;;;;;22.37;39.69;100878.69;104312;1298;62777;-80
2024/04/15 05:59:47;;;;;;;;;;;;;;;22.39;39.70;100875.54;104460;1294;62134;-79
2024/04/15 06:02:13;;;;;;;;;;;;;;;22.40;39.76;100873.95;104182;1295;75291;-78
2024/04/15 06:04:39;;;;;;;;;;;;;;;22.42;39.85;100871.52;104197;1294;62311;-79
2024/04/15 06:07:05;;;;;;;;;;;;;;;22.44;39.90;100870.13;104693;1295;61927;-78
2024/04/15 06:09:31;;;;;;;;;;;;;;;22.45;39.96;100868.45;104440;1294;62193;-79
2024/04/15 06:11:56;;;;;;;;;;;;;;;22.47;39.89;100869.77;104233;1294;62128;-79
2024/04/15 06:14:22;;;;;;;;;;;;;;;22.49;39.76;100869.59;103810;1293;62118;-78
2024/04/15 06:16:49;;;;;;;;;;;;;;;22.49;39.77;100873.19;104178;1294;63636;-79
2024/04/15 06:19:15;;;;;;;;;;;;;;;22.47;39.55;100866.69;103885;1297;65594;-79
2024/04/15 06:21:41;;;;;;;;;;;;;;;22.46;39.60;100865.73;104237;1294;62238;-79
2024/04/15 06:24:07;;;;;;;;;;;;;;;22.46;39.55;100865.52;104125;1296;75321;-79
2024/04/15 06:26:33;;;;;;;;;;;;;;;22.46;39.58;100867.27;104356;1292;62198;-78
2024/04/15 06:28:58;;;;;;;;;;;;;;;22.48;39.53;100864.80;104248;1290;62201;-78
2024/04/15 06:31:24;;;;;;;;;;;;;;;22.49;39.53;100863.45;104597;1292;62254;-77
2024/04/15 06:33:49;;;;;;;;;;;;;;;22.50;39.50;100863.03;104829;1292;62076;-79
2024/04/15 06:36:15;;;;;;;;;;;;;;;22.50;39.46;100856.92;104675;1291;74932;-78
2024/04/15 06:38:41;;;;;;;;;;;;;;;22.51;39.29;100859.75;104588;1290;62151;-77
2024/04/15 06:41:07;;;;;;;;;;;;;;;22.52;39.33;100855.16;104377;1289;59858;-78
2024/04/15 06:43:32;;;;;;;;;;;;;;;22.53;39.30;100854.19;104626;1292;62175;-78
2024/04/15 06:45:58;;;;;;;;;;;;;;;22.55;39.31;100855.68;104606;1290;62131;-78
2024/04/15 06:48:23;;;;;;;;;;;;;;;22.56;39.28;100856.79;104605;1291;62196;-78
2024/04/15 06:50:50;;;;;;;;;;;;;;;22.59;39.17;100854.45;104761;1291;62199;-78
2024/04/15 06:53:16;;;;;;;;;;;;;;;22.61;39.20;100852.30;104905;1291;59914;-80
2024/04/15 06:55:42;;;;;;;;;;;;;;;22.63;39.23;100853.77;104793;1294;62159;-78
2024/04/15 06:58:08;;;;;;;;;;;;;;;22.65;39.26;100853.83;104543;1291;62398;-78
2024/04/15 07:00:33;;;;;;;;;;;;;;;22.67;39.34;100850.98;104486;1291;62283;-79
2024/04/15 07:02:59;;;;;;;;;;;;;;;22.69;39.45;100851.52;104406;1292;62098;-80
2024/04/15 07:05:24;;;;;;;;;;;;;;;22.71;39.49;100846.88;104083;1291;62191;-80
2024/04/15 07:07:50;;;;;;;;;;;;;;;22.73;39.46;100836.86;104346;1291;72510;-79
2024/04/15 07:10:15;;;;;;;;;;;;;;;22.74;39.46;100836.23;104368;1290;62216;-78
2024/04/15 07:12:41;;;;;;;;;;;;;;;22.75;39.49;100835.06;103985;1289;62242;-80
2024/04/15 07:15:07;;;;;;;;;;;;;;;22.76;39.49;100833.23;103797;1291;62672;-79
2024/04/15 07:17:32;;;;;;;;;;;;;;;22.77;39.42;100832.45;103903;1291;62281;-79
2024/04/15 07:19:58;;;;;;;;;;;;;;;22.78;39.38;100828.83;103740;1294;62167;-79
2024/04/15 07:22:24;;;;;;;;;;;;;;;22.77;39.29;100834.94;104030;1290;62221;-78
2024/04/15 07:24:50;;;;;;;;;;;;;;;22.77;39.24;100839.80;103922;1291;63024;-79
2024/04/15 07:27:15;;;;;;;;;;;;;;;22.77;39.20;100839.64;104041;1289;62276;-78
2024/04/15 07:29:41;;;;;;;;;;;;;;;22.76;39.07;100834.82;103971;1292;62193;-78
2024/04/15 07:32:06;;;;;;;;;;;;;;;22.76;38.96;100830.70;104196;1289;62210;-78
2024/04/15 07:34:32;;;;;;;;;;;;;;;22.76;38.98;100830.35;104047;1291;62281;-77
2024/04/15 07:37:01;;;;;;;;;;;;;;;22.76;38.91;100831.08;103904;1290;61904;-78
2024/04/15 07:39:28;;;;;;;;;;;;;;;22.76;38.91;100830.37;104194;1290;62095;-79
2024/04/15 07:41:54;;;;;;;;;;;;;;;22.77;38.94;100832.27;104182;1291;62236;-78
2024/04/15 07:44:20;;;;;;;;;;;;;;;22.77;38.90;100830.09;104214;1291;62161;-79
2024/04/15 07:46:45;;;;;;;;;;;;;;;22.78;38.82;100828.38;104029;1291;62101;-78
2024/04/15 07:49:11;;;;;;;;;;;;;;;22.80;38.74;100825.04;104153;1290;62114;-79
2024/04/15 07:51:36;;;;;;;;;;;;;;;22.82;38.72;100822.06;104364;1289;62149;-80
2024/04/15 07:54:02;;;;;;;;;;;;;;;22.83;38.91;100817.11;104501;1289;64321;-78
2024/04/15 07:56:27;;;;;;;;;;;;;;;22.85;38.99;100815.86;104161;1294;62136;-80
2024/04/15 07:58:53;;;;;;;;;;;;;;;22.86;39.12;100811.77;104130;1292;62124;-79
2024/04/15 08:01:19;;;;;;;;;;;;;;;22.89;39.23;100809.38;104512;1291;62241;-79
2024/04/15 08:03:44;;;;;;;;;;;;;;;22.92;39.31;100807.21;103957;1292;62185;-79
2024/04/15 08:06:10;;;;;;;;;;;;;;;22.93;39.39;100801.34;104195;1291;62199;-80
2024/04/15 08:08:36;;;;;;;;;;;;;;;22.94;39.41;100798.77;104113;1292;62252;-78
2024/04/15 08:11:01;;;;;;;;;;;;;;;22.96;39.35;100801.20;104107;1292;60264;-77
2024/04/15 08:13:27;;;;;;;;;;;;;;;22.96;39.36;100801.55;104101;1292;62093;-78
2024/04/15 08:15:53;;;;;;;;;;;;;;;22.96;39.35;100805.82;104032;1291;62063;-78
2024/04/15 08:18:19;;;;;;;;;;;;;;;22.97;39.39;100803.08;104249;1292;59746;-79
2024/04/15 08:20:52;;;;;;;;;;;;;;;22.98;39.37;100796.57;103887;1295;62302;-78
2024/04/15 08:23:18;;;;;;;;;;;;;;;22.98;39.30;100796.88;104046;1291;62021;-78
2024/04/15 08:25:50;;;;;;;;;;;;;;;22.99;39.37;100797.49;103864;1292;62193;-79
2024/04/15 08:28:16;;;;;;;;;;;;;;;23.00;39.42;100795.31;103786;1291;72263;-78
2024/04/15 08:30:41;;;;;;;;;;;;;;;23.01;39.37;100795.06;103883;1292;60131;-78
2024/04/15 08:33:07;;;;;;;;;;;;;;;23.01;39.42;100793.23;103894;1291;62198;-78
2024/04/15 08:35:33;;;;;;;;;;;;;;;23.01;39.39;100790.52;103701;1291;62303;-78
2024/04/15 08:37:59;;;;;;;;;;;;;;;23.02;39.40;100785.83;103721;1292;62210;-79
2024/04/15 08:40:24;;;;;;;;;;;;;;;23.02;39.43;100786.70;104087;1291;62206;-78
2024/04/15 08:42:51;;;;;;;;;;;;;;;23.02;39.30;100782.02;103986;1294;75310;-79
2024/04/15 08:45:18;;;;;;;;;;;;;;;23.03;39.47;100777.30;105173;1291;62133;-79
2024/04/15 08:47:46;;;;;;;;;;;;;;;23.04;39.51;100774.90;104320;1291;62040;-79
2024/04/15 08:50:12;;;;;;;;;;;;;;;23.04;39.56;100774.11;104564;1291;72512;-81
2024/04/15 08:52:37;;;;;;;;;;;;;;;23.05;39.71;100769.03;104616;1291;62226;-79
2024/04/15 08:55:03;;;;;;;;;;;;;;;23.08;39.77;100765.58;104698;1292;62114;-79
2024/04/15 08:57:31;;;;;;;;;;;;;;;23.12;39.93;100758.45;104753;1293;62077;-79
2024/04/15 08:59:57;;;;;;;;;;;;;;;23.18;40.29;100755.83;105067;1292;62040;-80
2024/04/15 09:02:23;;;;;;;;;;;;;;;23.21;40.40;100757.77;105365;1294;62133;-81
2024/04/15 09:04:49;;;;;;;;;;;;;;;23.23;40.44;100755.38;105131;1289;62299;-80
2024/04/15 09:07:15;;;;;;;;;;;;;;;23.27;40.55;100747.23;105298;1291;62118;-80
2024/04/15 09:09:40;;;;;;;;;;;;;;;23.29;40.58;100749.39;105097;1291;59998;-81
2024/04/15 09:12:06;;;;;;;;;;;;;;;23.31;40.49;100746.38;105249;1291;72559;-78
2024/04/15 09:14:32;;;;;;;;;;;;;;;23.33;40.60;100746.16;105077;1291;64057;-79
2024/04/15 09:16:58;;;;;;;;;;;;;;;23.36;40.73;100745.60;104901;1290;62003;-80
2024/04/15 09:19:24;;;;;;;;;;;;;;;23.36;40.70;100741.28;104575;1291;62253;-78
2024/04/15 09:21:50;;;;;;;;;;;;;;;23.36;40.66;100736.04;104858;1294;62077;-79
2024/04/15 09:24:15;;;;;;;;;;;;;;;23.36;40.83;100729.60;104856;1290;62182;-79
2024/04/15 09:26:42;;;;;;;;;;;;;;;23.36;40.73;100729.27;104816;1289;59574;-78
2024/04/15 09:29:07;;;;;;;;;;;;;;;23.35;40.79;100723.58;104699;1291;62229;-78
2024/04/15 09:31:33;;;;;;;;;;;;;;;23.34;40.78;100720.73;104089;1291;62172;-78
2024/04/15 09:33:58;;;;;;;;;;;;;;;23.33;40.84;100719.39;104608;1292;62112;-79
2024/04/15 09:36:24;;;;;;;;;;;;;;;23.33;40.67;100716.55;104863;1294;62936;-80
2024/04/15 09:38:50;;;;;;;;;;;;;;;23.33;40.73;100711.70;104590;1291;62102;-77
2024/04/15 09:41:16;;;;;;;;;;;;;;;23.34;40.65;100704.45;104228;1292;62664;-79
2024/04/15 09:43:44;;;;;;;;;;;;;;;23.34;40.56;100701.77;104616;1292;59938;-77
2024/04/15 09:46:10;;;;;;;;;;;;;;;23.33;40.51;100695.32;104624;1289;72620;-80
2024/04/15 09:48:36;;;;;;;;;;;;;;;23.34;40.48;100690.96;104653;1292;75194;-80
2024/04/15 09:51:04;;;;;;;;;;;;;;;23.35;40.35;100689.45;104817;1291;59905;-80
2024/04/15 09:53:34;;;;;;;;;;;;;;;23.35;40.35;100684.23;104673;1291;60465;-79
2024/04/15 09:56:02;;;;;;;;;;;;;;;23.37;40.22;100683.52;104912;1291;64684;-81
2024/04/15 09:58:28;;;;;;;;;;;;;;;23.39;40.20;100685.31;105067;1290;75271;-80
2024/04/15 10:00:53;;;;;;;;;;;;;;;23.40;40.20;100677.33;104954;1292;60469;-79
2024/04/15 10:03:22;;;;;;;;;;;;;;;23.42;40.12;100674.99;104994;1291;61946;-80
2024/04/15 10:05:50;;;;;;;;;;;;;;;23.44;40.33;100672.17;104659;1294;72017;-78
2024/04/15 10:08:15;;;;;;;;;;;;;;;23.45;40.28;100674.25;104883;1291;75092;-79
2024/04/15 10:10:41;;;;;;;;;;;;;;;23.46;40.32;100672.05;104817;1291;62082;-79
2024/04/15 10:13:07;;;;;;;;;;;;;;;23.46;40.20;100667.23;104984;1291;62288;-78
2024/04/15 10:15:33;;;;;;;;;;;;;;;23.47;40.22;100667.42;104755;1294;59962;-80
2024/04/15 10:18:01;;;;;;;;;;;;;;;23.50;40.25;100668.63;104632;1290;62201;-80
2024/04/15 10:20:30;;;;;;;;;;;;;;;23.51;40.28;100664.09;104659;1289;59921;-80
2024/04/15 10:22:59;;;;;;;;;;;;;;;23.50;40.18;100657.67;105087;1290;59622;-79
2024/04/15 10:25:29;;;;;;;;;;;;;;;23.51;39.96;100655.99;104723;1292;72358;-79
2024/04/15 10:27:55;;;;;;;;;;;;;;;23.51;39.87;100651.13;104848;1292;75120;-80
2024/04/15 10:30:20;;;;;;;;;;;;;;;23.51;39.70;100648.43;104579;1291;62056;-80
2024/04/15 10:32:46;;;;;;;;;;;;;;;23.50;39.84;100645.59;104278;1290;62121;-79
2024/04/15 10:35:22;;;;;;;;;;;;;;;23.51;39.71;100646.23;104487;1291;61972;-81
2024/04/15 10:37:51;;;;;;;;;;;;;;;23.52;39.60;100635.99;104874;1290;76523;-80
2024/04/15 10:40:20;;;;;;;;;;;;;;;23.52;39.26;100635.79;104759;1290;61906;-80
2024/04/15 10:42:45;;;;;;;;;;;;;;;23.51;39.33;100638.56;104456;1292;61908;-79
2024/04/15 10:45:15;;;;;;;;;;;;;;;23.50;39.27;100636.83;104681;1291;62278;-80
2024/04/15 10:47:41;;;;;;;;;;;;;;;23.50;39.19;100628.17;104721;1291;75172;-80
2024/04/15 10:50:08;;;;;;;;;;;;;;;23.51;39.20;100620.97;104286;1292;62213;-81
2024/04/15 10:52:34;;;;;;;;;;;;;;;23.51;39.18;100618.29;104224;1291;63134;-79
2024/04/15 10:54:59;;;;;;;;;;;;;;;23.51;39.10;100604.95;104403;1296;62127;-80
2024/04/15 10:57:25;;;;;;;;;;;;;;;23.51;39.05;100601.95;104713;1292;62275;-79
2024/04/15 10:59:50;;;;;;;;;;;;;;;23.52;38.92;100595.58;104562;1292;62217;-79
2024/04/15 11:02:16;;;;;;;;;;;;;;;23.52;39.06;100586.71;104731;1294;62115;-79
2024/04/15 11:04:42;;;;;;;;;;;;;;;23.54;39.09;100586.23;105006;1291;64320;-80
2024/04/15 11:07:08;;;;;;;;;;;;;;;23.56;39.17;100581.40;105264;1294;63042;-80
2024/04/15 11:09:34;;;;;;;;;;;;;;;23.57;39.27;100573.17;105024;1291;62502;-82
2024/04/15 11:12:03;;;;;;;;;;;;;;;23.57;39.34;100573.69;105947;1290;59654;-81
2024/04/15 11:14:30;;;;;;;;;;;;;;;23.59;39.33;100572.29;106062;1294;59830;-80
2024/04/15 11:16:56;;;;;;;;;;;;;;;23.60;39.28;100570.39;106048;1290;63587;-82
2024/04/15 11:19:23;;;;;;;;;;;;;;;23.61;39.33;100562.65;105898;1292;59796;-82
2024/04/15 11:21:49;;;;;;;;;;;;;;;23.61;39.17;100562.26;106041;1289;60541;-80
2024/04/15 11:24:14;;;;;;;;;;;;;;;23.61;39.01;100557.06;106157;1289;59632;-82
2024/04/15 11:26:40;;;;;;;;;;;;;;;23.61;39.02;100557.40;106141;1291;60271;-80
2024/04/15 11:29:06;;;;;;;;;;;;;;;23.61;38.73;100554.90;106113;1291;60721;-80
2024/04/15 11:31:32;;;;;;;;;;;;;;;23.62;38.58;100550.15;106091;1289;60038;-82
2024/04/15 11:33:57;;;;;;;;;;;;;;;23.62;38.41;100539.53;106088;1292;59906;-80
2024/04/15 11:36:23;;;;;;;;;;;;;;;23.63;38.19;100534.09;106121;1289;61188;-80
2024/04/15 11:38:49;;;;;;;;;;;;;;;23.62;38.18;100530.96;106150;1290;59817;-77
2024/04/15 11:41:14;;;;;;;;;;;;;;;23.61;38.17;100529.21;106194;1292;59710;-78
2024/04/15 11:43:40;;;;;;;;;;;;;;;23.63;37.94;100527.28;106185;1292;60171;-80
2024/04/15 11:46:06;;;;;;;;;;;;;;;23.64;37.72;100519.59;106096;1289;61238;-78
2024/04/15 11:48:31;;;;;;;;;;;;;;;23.64;37.87;100512.56;106078;1289;59666;-77
2024/04/15 11:50:57;;;;;;;;;;;;;;;23.64;37.77;100505.08;106113;1289;59724;-78
2024/04/15 11:53:24;;;;;;;;;;;;;;;23.65;37.61;100503.00;104867;1291;62181;-78
2024/04/15 11:55:55;;;;;;;;;;;;;;;23.66;37.64;100502.39;104915;1292;60064;-79
2024/04/15 11:58:21;;;;;;;;;;;;;;;23.66;37.67;100497.66;105087;1294;64356;-79
2024/04/15 12:00:47;;;;;;;;;;;;;;;23.66;37.50;100492.85;105166;1293;62932;-81
2024/04/15 12:03:12;;;;;;;;;;;;;;;23.64;37.38;100485.47;105310;1294;61148;-79
2024/04/15 12:05:38;;;;;;;;;;;;;;;23.63;37.40;100480.73;105284;1291;59871;-78
2024/04/15 12:08:03;;;;;;;;;;;;;;;23.64;37.59;100479.25;104868;1290;62293;-79
2024/04/15 12:10:29;;;;;;;;;;;;;;;23.64;37.43;100470.98;105409;1292;59819;-79
2024/04/15 12:12:55;;;;;;;;;;;;;;;23.65;37.45;100469.59;104653;1294;62021;-78
2024/04/15 12:15:20;;;;;;;;;;;;;;;23.67;37.28;100466.15;104696;1291;62201;-77
2024/04/15 12:17:46;;;;;;;;;;;;;;;23.68;37.21;100459.81;105396;1290;61034;-81
2024/04/15 12:20:11;;;;;;;;;;;;;;;23.69;37.15;100449.48;105331;1290;60415;-79